createdAt,value
2023-02-16T00:00:03.498Z,82.60
2023-02-16T00:02:10.288Z,82.80
2023-02-16T00:04:18.872Z,82.70
2023-02-16T00:06:21.863Z,82.10
2023-02-16T00:08:24.750Z,82.60
2023-02-16T00:10:30.945Z,83.20
2023-02-16T00:12:51.169Z,83.30
2023-02-16T00:14:53.946Z,82.80
2023-02-16T00:16:57.906Z,82.70
2023-02-16T00:19:02.503Z,82.80
2023-02-16T00:21:05.612Z,82.30
2023-02-16T00:23:08.422Z,82.80
2023-02-16T00:25:11.630Z,82.70
2023-02-16T00:27:18.445Z,82.70
2023-02-16T00:29:25.481Z,83.20
2023-02-16T00:31:32.844Z,83.00
2023-02-16T00:33:35.630Z,83.00
2023-02-16T00:35:39.656Z,83.50
2023-02-16T00:37:42.414Z,84.10
2023-02-16T00:39:46.348Z,84.40
2023-02-16T00:41:51.189Z,84.40
2023-02-16T00:43:54.852Z,84.10
2023-02-16T00:45:58.018Z,84.50
2023-02-16T00:48:00.782Z,83.80
2023-02-16T00:50:04.505Z,83.60
2023-02-16T00:52:33.972Z,83.20
2023-02-16T00:54:36.793Z,83.00
2023-02-16T00:56:40.692Z,82.90
2023-02-16T00:58:43.489Z,82.90
2023-02-16T01:00:49.709Z,82.50
2023-02-16T01:03:00.958Z,82.60
2023-02-16T01:05:03.908Z,82.50
2023-02-16T01:07:29.561Z,82.50
2023-02-16T01:09:49.637Z,83.20
2023-02-16T01:11:52.625Z,83.20
2023-02-16T01:13:56.960Z,83.10
2023-02-16T01:15:59.823Z,83.30
2023-02-16T01:18:02.607Z,83.50
2023-02-16T01:20:11.233Z,83.50
2023-02-16T01:22:15.821Z,83.80
2023-02-16T01:24:18.612Z,83.70
2023-02-16T01:26:21.975Z,83.50
2023-02-16T01:28:26.966Z,83.40
2023-02-16T01:30:29.881Z,83.20
2023-02-16T01:32:33.225Z,83.50
2023-02-16T01:34:35.921Z,83.20
2023-02-16T01:36:40.560Z,83.30
2023-02-16T01:38:44.598Z,83.50
2023-02-16T01:40:54.478Z,83.40
2023-02-16T01:43:03.870Z,83.10
2023-02-16T01:45:14.104Z,82.70
2023-02-16T01:47:30.818Z,82.70
2023-02-16T01:49:33.657Z,82.90
2023-02-16T01:51:49.725Z,82.70
2023-02-16T01:53:59.403Z,82.50
2023-02-16T01:56:05.879Z,82.60
2023-02-16T01:58:15.694Z,83.00
2023-02-16T02:00:28.230Z,83.00
2023-02-16T02:02:36.452Z,83.00
2023-02-16T02:05:01.868Z,82.90
2023-02-16T02:07:04.742Z,82.60
2023-02-16T02:09:12.678Z,82.90
2023-02-16T02:11:19.278Z,82.80
2023-02-16T02:13:27.739Z,82.50
2023-02-16T02:15:33.320Z,83.10
2023-02-16T02:17:37.338Z,83.40
2023-02-16T02:19:48.834Z,83.40
2023-02-16T02:22:32.452Z,83.30
2023-02-16T02:24:58.636Z,82.70
2023-02-16T02:27:18.025Z,83.30
2023-02-16T02:29:35.996Z,83.40
2023-02-16T02:31:50.706Z,83.80
2023-02-16T02:34:02.937Z,83.90
2023-02-16T02:36:17.624Z,83.50
2023-02-16T02:38:28.932Z,83.20
2023-02-16T02:40:42.101Z,83.20
2023-02-16T02:42:53.737Z,82.60
2023-02-16T02:45:02.679Z,82.80
2023-02-16T02:47:05.692Z,82.50
2023-02-16T02:49:08.455Z,82.40
2023-02-16T02:51:33.773Z,82.30
2023-02-16T02:53:39.460Z,83.10
2023-02-16T02:56:14.666Z,83.10
2023-02-16T02:58:37.752Z,83.00
2023-02-16T03:00:46.699Z,83.00
2023-02-16T03:02:52.460Z,83.10
2023-02-16T03:04:57.607Z,83.00
2023-02-16T03:07:02.594Z,82.80
2023-02-16T03:09:11.449Z,83.10
2023-02-16T03:11:35.361Z,83.50
2023-02-16T03:13:44.102Z,83.60
2023-02-16T03:15:49.002Z,83.70
2023-02-16T03:18:12.510Z,83.40
2023-02-16T03:20:35.020Z,83.20
2023-02-16T03:22:57.478Z,82.90
2023-02-16T03:25:17.594Z,83.10
2023-02-16T03:27:44.809Z,83.70
2023-02-16T03:29:50.937Z,83.60
2023-02-16T03:31:56.067Z,83.50
2023-02-16T03:33:59.401Z,83.50
2023-02-16T03:36:02.725Z,83.60
2023-02-16T03:38:06.312Z,83.50
2023-02-16T03:40:32.808Z,83.30
2023-02-16T03:42:35.626Z,83.50
2023-02-16T03:44:38.560Z,83.60
2023-02-16T03:46:43.013Z,83.60
2023-02-16T03:48:45.869Z,83.70
2023-02-16T03:50:48.589Z,83.50
2023-02-16T03:52:51.362Z,83.60
2023-02-16T03:54:54.080Z,83.80
2023-02-16T03:56:56.908Z,84.00
2023-02-16T03:58:59.669Z,84.00
2023-02-16T04:01:02.820Z,84.20
2023-02-16T04:03:08.840Z,84.20
2023-02-16T04:05:11.690Z,84.30
2023-02-16T04:07:14.617Z,84.10
2023-02-16T04:09:17.386Z,84.10
2023-02-16T04:11:37.558Z,84.20
2023-02-16T04:13:40.409Z,84.40
2023-02-16T04:15:43.211Z,84.20
2023-02-16T04:17:46.406Z,84.20
2023-02-16T04:19:50.497Z,84.10
2023-02-16T04:21:53.778Z,83.80
2023-02-16T04:23:56.502Z,83.00
2023-02-16T04:25:59.245Z,83.40
2023-02-16T04:28:02.149Z,83.90
2023-02-16T04:30:06.255Z,83.90
2023-02-16T04:32:09.223Z,83.90
2023-02-16T04:34:12.295Z,83.50
2023-02-16T04:36:16.613Z,83.60
2023-02-16T04:38:19.326Z,83.60
2023-02-16T04:40:22.258Z,83.20
2023-02-16T04:42:25.135Z,83.60
2023-02-16T04:44:28.005Z,83.60
2023-02-16T04:46:30.940Z,83.50
2023-02-16T04:48:33.678Z,83.50
2023-02-16T04:50:36.377Z,83.50
2023-02-16T04:52:41.400Z,83.60
2023-02-16T04:54:44.519Z,83.40
2023-02-16T04:56:47.817Z,83.40
2023-02-16T04:58:50.544Z,83.20
2023-02-16T05:00:53.240Z,82.90
2023-02-16T05:02:55.941Z,83.00
2023-02-16T05:04:58.653Z,83.60
2023-02-16T05:07:01.390Z,84.10
2023-02-16T05:09:06.943Z,84.80
2023-02-16T05:11:27.797Z,84.70
2023-02-16T05:13:48.164Z,84.10
2023-02-16T05:15:50.899Z,84.20
2023-02-16T05:17:53.628Z,84.10
2023-02-16T05:19:58.337Z,84.20
2023-02-16T05:22:00.240Z,84.30
2023-02-16T05:24:07.189Z,83.90
2023-02-16T05:26:09.889Z,83.90
2023-02-16T05:28:12.726Z,83.50
2023-02-16T05:30:16.430Z,83.80
2023-02-16T05:32:19.665Z,83.80
2023-02-16T05:34:22.633Z,84.20
2023-02-16T05:36:25.679Z,84.60
2023-02-16T05:38:28.409Z,84.90
2023-02-16T05:40:32.512Z,84.90
2023-02-16T05:42:35.199Z,84.70
2023-02-16T05:44:38.352Z,84.50
2023-02-16T05:46:42.062Z,84.20
2023-02-16T05:48:44.880Z,83.90
2023-02-16T05:50:47.646Z,84.00
2023-02-16T05:52:50.326Z,84.00
2023-02-16T05:54:53.137Z,83.80
2023-02-16T05:56:57.227Z,83.80
2023-02-16T05:59:00.527Z,83.90
2023-02-16T06:01:03.529Z,84.30
2023-02-16T06:03:06.433Z,83.60
2023-02-16T06:05:09.415Z,83.40
2023-02-16T06:07:14.637Z,83.80
2023-02-16T06:09:18.118Z,84.20
2023-02-16T06:11:39.148Z,84.60
2023-02-16T06:13:43.212Z,85.20
2023-02-16T06:15:46.585Z,85.40
2023-02-16T06:17:49.395Z,85.60
2023-02-16T06:19:52.467Z,85.50
2023-02-16T06:21:55.208Z,85.20
2023-02-16T06:23:58.182Z,85.30
2023-02-16T06:26:00.896Z,85.30
2023-02-16T06:28:04.073Z,84.70
2023-02-16T06:30:09.564Z,84.60
2023-02-16T06:32:12.387Z,85.00
2023-02-16T06:34:15.117Z,85.00
2023-02-16T06:36:18.206Z,84.80
2023-02-16T06:38:20.946Z,84.30
2023-02-16T06:40:23.733Z,84.50
2023-02-16T06:42:26.509Z,84.40
2023-02-16T06:44:29.390Z,84.80
2023-02-16T06:46:33.911Z,85.30
2023-02-16T06:48:36.672Z,85.10
2023-02-16T06:50:39.391Z,85.00
2023-02-16T06:52:42.301Z,85.20
2023-02-16T06:54:45.055Z,86.50
2023-02-16T06:56:47.769Z,86.20
2023-02-16T06:58:50.963Z,86.70
2023-02-16T07:00:55.744Z,86.60
2023-02-16T07:02:59.923Z,86.50
2023-02-16T07:05:03.364Z,86.60
2023-02-16T07:07:06.165Z,86.90
2023-02-16T07:09:10.604Z,86.80
2023-02-16T07:11:14.328Z,86.80
2023-02-16T07:13:17.128Z,86.60
2023-02-16T07:15:19.959Z,86.60
2023-02-16T07:17:22.703Z,86.00
2023-02-16T07:19:26.962Z,86.30
2023-02-16T07:21:30.009Z,86.50
2023-02-16T07:23:33.170Z,86.70
2023-02-16T07:25:37.072Z,86.80
2023-02-16T07:27:39.909Z,86.90
2023-02-16T07:29:42.629Z,86.30
2023-02-16T07:31:45.557Z,86.20
2023-02-16T07:33:48.359Z,86.60
2023-02-16T07:35:52.414Z,86.40
2023-02-16T07:37:55.086Z,86.00
2023-02-16T07:39:58.459Z,86.30
2023-02-16T07:42:01.729Z,86.60
2023-02-16T07:44:04.510Z,86.70
2023-02-16T07:46:07.365Z,86.60
2023-02-16T07:48:10.281Z,86.40
2023-02-16T07:50:13.358Z,86.60
2023-02-16T07:52:17.370Z,86.60
2023-02-16T07:54:20.168Z,86.40
2023-02-16T07:56:24.306Z,86.40
2023-02-16T07:58:29.990Z,86.40
2023-02-16T08:00:32.730Z,86.60
2023-02-16T08:02:36.045Z,86.50
2023-02-16T08:04:38.845Z,86.70
2023-02-16T08:06:41.558Z,87.10
2023-02-16T08:08:45.669Z,87.10
2023-02-16T08:10:48.354Z,87.20
2023-02-16T08:12:52.824Z,87.50
2023-02-16T08:14:55.595Z,87.40
2023-02-16T08:16:58.339Z,87.60
2023-02-16T08:19:04.767Z,87.60
2023-02-16T08:21:14.184Z,87.60
2023-02-16T08:23:16.964Z,87.60
2023-02-16T08:25:21.041Z,87.50
2023-02-16T08:27:24.779Z,87.30
2023-02-16T08:29:27.548Z,87.20
2023-02-16T08:31:32.556Z,86.90
2023-02-16T08:33:35.392Z,87.00
2023-02-16T08:35:39.541Z,86.70
2023-02-16T08:37:42.413Z,86.90
2023-02-16T08:39:45.262Z,86.80
2023-02-16T08:41:50.838Z,86.60
2023-02-16T08:43:53.697Z,86.60
2023-02-16T08:45:57.193Z,86.80
2023-02-16T08:48:02.185Z,86.30
2023-02-16T08:50:05.119Z,86.90
2023-02-16T08:52:07.856Z,86.60
2023-02-16T08:54:14.776Z,86.60
2023-02-16T08:56:17.536Z,86.30
2023-02-16T08:58:22.000Z,86.60
2023-02-16T09:00:38.061Z,86.60
2023-02-16T09:02:40.761Z,86.30
2023-02-16T09:04:43.525Z,86.10
2023-02-16T09:06:48.388Z,86.50
2023-02-16T09:08:55.868Z,86.00
2023-02-16T09:11:02.659Z,86.10
2023-02-16T09:13:05.886Z,86.30
2023-02-16T09:15:11.406Z,85.10
2023-02-16T09:17:14.260Z,85.40
2023-02-16T09:19:20.417Z,85.10
2023-02-16T09:21:25.678Z,85.30
2023-02-16T09:23:28.442Z,85.20
2023-02-16T09:25:36.806Z,85.00
2023-02-16T09:27:40.060Z,85.50
2023-02-16T09:29:43.881Z,85.30
2023-02-16T09:31:47.944Z,85.40
2023-02-16T09:33:51.338Z,85.50
2023-02-16T09:35:54.657Z,84.00
2023-02-16T09:37:58.194Z,83.80
2023-02-16T09:40:01.202Z,83.80
2023-02-16T09:42:17.320Z,83.70
2023-02-16T09:44:28.309Z,83.30
2023-02-16T09:46:33.410Z,83.10
2023-02-16T09:48:42.581Z,82.90
2023-02-16T09:50:53.695Z,83.00
2023-02-16T09:53:01.684Z,81.90
2023-02-16T09:55:08.954Z,82.30
2023-02-16T09:57:27.640Z,82.50
2023-02-16T09:59:42.401Z,82.30
2023-02-16T10:01:52.186Z,81.60
2023-02-16T10:04:06.557Z,81.50
2023-02-16T10:06:27.182Z,81.00
2023-02-16T10:08:34.153Z,77.70
2023-02-16T10:10:45.602Z,79.60
2023-02-16T10:12:54.875Z,80.70
2023-02-16T10:15:01.379Z,80.80
2023-02-16T10:17:16.149Z,80.40
2023-02-16T10:19:24.235Z,79.90
2023-02-16T10:21:31.358Z,79.60
2023-02-16T10:23:43.147Z,79.20
2023-02-16T10:25:49.471Z,79.00
2023-02-16T10:28:12.572Z,79.20
2023-02-16T10:30:17.304Z,79.10
2023-02-16T10:32:29.124Z,79.50
2023-02-16T10:34:46.274Z,79.60
2023-02-16T10:37:03.430Z,79.80
2023-02-16T10:39:17.201Z,79.40
2023-02-16T10:41:31.574Z,79.20
2023-02-16T10:43:43.817Z,79.30
2023-02-16T10:45:52.405Z,78.60
2023-02-16T10:47:55.628Z,78.50
2023-02-16T10:49:59.874Z,78.90
2023-02-16T10:52:04.427Z,78.80
2023-02-16T10:54:11.317Z,78.90
2023-02-16T10:56:39.748Z,78.20
2023-02-16T10:58:43.015Z,77.50
2023-02-16T11:00:52.655Z,78.00
2023-02-16T11:02:56.343Z,77.60
2023-02-16T11:05:48.456Z,77.30
2023-02-16T11:07:54.686Z,77.20
2023-02-16T11:10:01.224Z,77.60
2023-02-16T11:12:17.756Z,77.90
2023-02-16T11:14:23.228Z,77.00
2023-02-16T11:16:26.548Z,76.90
2023-02-16T11:18:34.110Z,76.40
2023-02-16T11:20:53.794Z,76.30
2023-02-16T11:23:14.455Z,76.40
2023-02-16T11:25:26.854Z,74.40
2023-02-16T11:27:29.900Z,74.10
2023-02-16T11:29:32.895Z,71.00
2023-02-16T11:31:40.726Z,72.70
2023-02-16T11:33:55.305Z,72.50
2023-02-16T11:36:02.352Z,74.40
2023-02-16T11:38:06.342Z,74.50
2023-02-16T11:40:21.532Z,75.60
2023-02-16T11:42:32.191Z,75.80
2023-02-16T11:44:37.544Z,75.60
2023-02-16T11:46:41.749Z,75.70
2023-02-16T11:48:44.985Z,75.00
2023-02-16T11:50:57.412Z,75.10
2023-02-16T11:53:23.401Z,74.90
2023-02-16T11:55:33.010Z,74.40
2023-02-16T11:57:37.394Z,73.50
2023-02-16T11:59:41.332Z,72.30
2023-02-16T12:02:23.043Z,74.30
2023-02-16T12:04:36.865Z,75.20
2023-02-16T12:06:55.375Z,74.60
2023-02-16T12:09:13.194Z,73.30
2023-02-16T12:11:28.119Z,72.10
2023-02-16T12:13:39.403Z,71.40
2023-02-16T12:15:49.093Z,72.10
2023-02-16T12:18:06.685Z,72.10
2023-02-16T12:20:23.914Z,72.30
2023-02-16T12:22:34.006Z,73.00
2023-02-16T12:24:50.189Z,73.20
2023-02-16T12:26:57.365Z,71.10
2023-02-16T12:29:11.111Z,69.40
2023-02-16T12:31:34.004Z,72.00
2023-02-16T12:33:49.569Z,70.50
2023-02-16T12:36:02.784Z,71.90
2023-02-16T12:38:16.619Z,72.30
2023-02-16T12:40:32.417Z,71.40
2023-02-16T12:42:45.996Z,69.60
2023-02-16T12:44:51.495Z,69.80
2023-02-16T12:47:01.929Z,70.60
2023-02-16T12:49:14.524Z,71.60
2023-02-16T12:51:20.325Z,72.20
2023-02-16T12:53:27.987Z,71.90
2023-02-16T12:55:38.212Z,71.20
2023-02-16T12:57:50.481Z,71.00
2023-02-16T12:59:59.450Z,71.70
2023-02-16T13:02:05.351Z,71.70
2023-02-16T13:04:18.620Z,71.40
2023-02-16T13:06:47.688Z,72.00
2023-02-16T13:08:57.187Z,71.50
2023-02-16T13:11:11.317Z,71.60
2023-02-16T13:13:18.948Z,72.00
2023-02-16T13:15:27.069Z,72.40
2023-02-16T13:17:34.083Z,72.30
2023-02-16T13:19:37.254Z,72.80
2023-02-16T13:21:55.280Z,72.50
2023-02-16T13:24:07.690Z,72.40
2023-02-16T13:26:39.288Z,72.50
2023-02-16T13:29:12.056Z,72.00
2023-02-16T13:31:27.220Z,72.60
2023-02-16T13:33:52.800Z,72.60
2023-02-16T13:36:07.608Z,71.90
2023-02-16T13:38:34.149Z,71.90
2023-02-16T13:40:59.682Z,71.10
2023-02-16T13:43:28.079Z,72.60
2023-02-16T13:45:33.783Z,73.00
2023-02-16T13:47:50.153Z,73.30
2023-02-16T13:49:58.760Z,74.10
2023-02-16T13:52:02.126Z,73.90
2023-02-16T13:54:05.602Z,74.80
2023-02-16T13:56:23.107Z,73.30
2023-02-16T13:58:35.640Z,74.50
2023-02-16T14:00:40.988Z,74.90
2023-02-16T14:03:02.018Z,74.20
2023-02-16T14:05:11.807Z,75.00
2023-02-16T14:07:35.799Z,74.50
2023-02-16T14:09:49.330Z,75.20
2023-02-16T14:12:04.478Z,74.80
2023-02-16T14:14:27.891Z,75.70
2023-02-16T14:16:34.034Z,75.60
2023-02-16T14:18:43.435Z,75.90
2023-02-16T14:20:46.129Z,74.60
2023-02-16T14:22:51.072Z,75.50
2023-02-16T14:24:56.138Z,76.00
2023-02-16T14:27:01.891Z,76.00
2023-02-16T14:29:15.904Z,75.30
2023-02-16T14:31:22.837Z,74.50
2023-02-16T14:33:39.359Z,75.30
2023-02-16T14:35:44.026Z,75.40
2023-02-16T14:37:55.341Z,74.60
2023-02-16T14:40:12.287Z,75.00
2023-02-16T14:42:17.765Z,75.80
2023-02-16T14:44:45.838Z,76.10
2023-02-16T14:46:57.662Z,75.80
2023-02-16T14:49:41.191Z,76.40
2023-02-16T14:52:16.331Z,74.80
2023-02-16T14:54:52.685Z,75.40
2023-02-16T14:57:03.130Z,75.40
2023-02-16T14:59:13.190Z,75.90
2023-02-16T15:01:19.340Z,75.70
2023-02-16T15:03:24.352Z,75.90
2023-02-16T15:05:29.831Z,75.70
2023-02-16T15:07:32.585Z,75.90
2023-02-16T15:09:36.365Z,75.80
2023-02-16T15:11:59.071Z,75.60
2023-02-16T15:14:09.306Z,75.90
2023-02-16T15:16:15.850Z,75.90
2023-02-16T15:18:23.483Z,76.70
2023-02-16T15:20:30.980Z,76.60
2023-02-16T15:22:33.819Z,77.10
2023-02-16T15:24:36.574Z,77.30
2023-02-16T15:26:39.305Z,76.60
2023-02-16T15:28:42.085Z,77.40
2023-02-16T15:30:49.136Z,77.90
2023-02-16T15:32:54.264Z,78.10
2023-02-16T15:34:59.526Z,77.70
2023-02-16T15:37:20.031Z,77.90
2023-02-16T15:39:38.512Z,77.80
2023-02-16T15:41:51.107Z,77.40
2023-02-16T15:43:53.834Z,78.20
2023-02-16T15:45:56.739Z,77.90
2023-02-16T15:48:25.825Z,78.40
2023-02-16T15:50:30.468Z,78.40
2023-02-16T15:52:35.801Z,78.30
2023-02-16T15:54:40.511Z,78.80
2023-02-16T15:56:47.212Z,78.40
2023-02-16T15:58:50.344Z,78.40
2023-02-16T16:00:55.057Z,78.80
2023-02-16T16:02:59.126Z,78.80
2023-02-16T16:05:04.424Z,78.70
2023-02-16T16:07:13.025Z,78.90
2023-02-16T16:09:25.547Z,78.90
2023-02-16T16:11:28.699Z,79.00
2023-02-16T16:13:32.303Z,79.00
2023-02-16T16:15:41.577Z,79.20
2023-02-16T16:17:44.334Z,79.10
2023-02-16T16:19:47.206Z,79.30
2023-02-16T16:21:54.140Z,79.40
2023-02-16T16:24:01.209Z,79.40
2023-02-16T16:26:16.916Z,79.80
2023-02-16T16:28:35.801Z,79.70
2023-02-16T16:30:43.790Z,79.80
2023-02-16T16:32:47.034Z,79.80
2023-02-16T16:34:51.010Z,80.50
2023-02-16T16:36:56.584Z,79.90
2023-02-16T16:39:23.594Z,79.80
2023-02-16T16:41:29.062Z,79.60
2023-02-16T16:43:33.553Z,79.80
2023-02-16T16:45:37.962Z,80.00
2023-02-16T16:47:42.129Z,80.00
2023-02-16T16:49:59.136Z,80.00
2023-02-16T16:52:03.995Z,80.10
2023-02-16T16:54:08.393Z,79.90
2023-02-16T16:56:15.107Z,80.00
2023-02-16T16:58:17.842Z,80.10
2023-02-16T17:00:21.689Z,80.10
2023-02-16T17:02:24.492Z,80.10
2023-02-16T17:04:27.893Z,80.10
2023-02-16T17:06:31.046Z,79.90
2023-02-16T17:08:33.744Z,80.30
2023-02-16T17:10:38.387Z,80.50
2023-02-16T17:12:42.586Z,80.50
2023-02-16T17:14:45.331Z,80.70
2023-02-16T17:16:50.706Z,80.80
2023-02-16T17:18:53.567Z,81.00
2023-02-16T17:20:56.493Z,81.00
2023-02-16T17:23:04.334Z,81.10
2023-02-16T17:25:07.396Z,81.10
2023-02-16T17:27:11.256Z,81.00
2023-02-16T17:29:16.134Z,81.20
2023-02-16T17:31:18.949Z,81.20
2023-02-16T17:33:21.770Z,81.40
2023-02-16T17:35:24.597Z,81.50
2023-02-16T17:37:27.947Z,81.50
2023-02-16T17:39:31.464Z,81.70
2023-02-16T17:41:34.132Z,81.70
2023-02-16T17:43:36.829Z,81.80
2023-02-16T17:45:41.490Z,81.80
2023-02-16T17:47:45.246Z,81.70
2023-02-16T17:49:47.960Z,81.90
2023-02-16T17:51:50.685Z,82.10
2023-02-16T17:53:53.619Z,82.30
2023-02-16T17:55:58.534Z,82.50
2023-02-16T17:58:01.249Z,82.50
2023-02-16T18:00:05.506Z,82.40
2023-02-16T18:02:10.589Z,82.50
2023-02-16T18:04:13.393Z,82.50
2023-02-16T18:06:18.147Z,82.50
2023-02-16T18:08:20.891Z,82.70
2023-02-16T18:10:34.409Z,82.80
2023-02-16T18:12:37.139Z,83.70
2023-02-16T18:14:40.293Z,82.80
2023-02-16T18:16:43.163Z,82.90
2023-02-16T18:18:47.265Z,83.40
2023-02-16T18:20:50.058Z,83.50
2023-02-16T18:22:52.978Z,83.40
2023-02-16T18:24:55.685Z,83.40
2023-02-16T18:26:58.774Z,83.30
2023-02-16T18:29:01.520Z,83.30
2023-02-16T18:31:07.302Z,83.30
2023-02-16T18:33:10.158Z,83.30
2023-02-16T18:35:15.196Z,83.50
2023-02-16T18:37:18.241Z,83.40
2023-02-16T18:39:20.943Z,83.30
2023-02-16T18:41:23.759Z,83.20
2023-02-16T18:43:26.572Z,83.40
2023-02-16T18:45:30.030Z,83.50
2023-02-16T18:47:32.772Z,83.50
2023-02-16T18:49:35.844Z,83.60
2023-02-16T18:51:39.999Z,83.40
2023-02-16T18:53:42.833Z,83.30
2023-02-16T18:55:45.611Z,83.70
2023-02-16T18:57:48.411Z,84.50
2023-02-16T18:59:54.212Z,84.30
2023-02-16T19:01:57.692Z,84.60
2023-02-16T19:04:01.194Z,84.40
2023-02-16T19:06:04.398Z,84.40
2023-02-16T19:08:08.665Z,84.30
2023-02-16T19:10:14.667Z,84.30
2023-02-16T19:12:17.939Z,84.30
2023-02-16T19:14:20.686Z,84.50
2023-02-16T19:16:23.747Z,84.60
2023-02-16T19:18:29.142Z,85.00
2023-02-16T19:20:31.955Z,84.90
2023-02-16T19:22:37.212Z,85.20
2023-02-16T19:24:41.492Z,85.00
2023-02-16T19:26:44.363Z,85.10
2023-02-16T19:28:47.278Z,85.50
2023-02-16T19:30:50.278Z,85.70
2023-02-16T19:32:53.144Z,85.60
2023-02-16T19:34:56.111Z,85.50
2023-02-16T19:36:58.819Z,85.40
2023-02-16T19:39:01.854Z,85.30
2023-02-16T19:41:11.935Z,85.50
2023-02-16T19:43:14.678Z,84.60
2023-02-16T19:45:17.504Z,84.90
2023-02-16T19:47:20.231Z,84.60
2023-02-16T19:49:23.052Z,84.40
2023-02-16T19:51:26.499Z,84.70
2023-02-16T19:53:30.029Z,84.70
2023-02-16T19:55:33.337Z,84.40
2023-02-16T19:57:37.521Z,84.80
2023-02-16T19:59:40.181Z,84.50
2023-02-16T20:01:42.982Z,84.60
2023-02-16T20:03:46.326Z,85.00
2023-02-16T20:05:49.196Z,85.00
2023-02-16T20:07:51.887Z,85.10
2023-02-16T20:09:54.697Z,84.90
2023-02-16T20:11:57.413Z,84.80
2023-02-16T20:14:02.323Z,85.00
2023-02-16T20:16:07.387Z,85.00
2023-02-16T20:18:13.018Z,85.00
2023-02-16T20:20:15.803Z,84.90
2023-02-16T20:22:18.830Z,84.50
2023-02-16T20:24:21.522Z,84.50
2023-02-16T20:26:27.086Z,84.30
2023-02-16T20:28:29.922Z,84.40
2023-02-16T20:30:34.251Z,84.40
2023-02-16T20:32:37.047Z,84.40
2023-02-16T20:34:39.870Z,84.20
2023-02-16T20:36:45.324Z,84.20
2023-02-16T20:38:50.260Z,84.50
2023-02-16T20:40:53.044Z,84.10
2023-02-16T20:42:55.803Z,84.30
2023-02-16T20:44:58.565Z,84.10
2023-02-16T20:47:02.750Z,84.40
2023-02-16T20:49:06.679Z,84.60
2023-02-16T20:51:11.793Z,84.40
2023-02-16T20:53:14.533Z,84.40
2023-02-16T20:55:17.342Z,84.40
2023-02-16T20:57:26.846Z,84.40
2023-02-16T20:59:30.131Z,85.20
2023-02-16T21:01:38.101Z,84.40
2023-02-16T21:03:42.610Z,84.20
2023-02-16T21:05:45.526Z,84.50
2023-02-16T21:07:49.963Z,83.90
2023-02-16T21:09:53.011Z,83.70
2023-02-16T21:11:56.205Z,84.40
2023-02-16T21:13:59.250Z,84.70
2023-02-16T21:16:02.425Z,84.60
2023-02-16T21:18:05.783Z,84.50
2023-02-16T21:20:11.009Z,84.60
2023-02-16T21:22:13.736Z,84.50
2023-02-16T21:24:16.554Z,84.20
2023-02-16T21:26:21.757Z,84.20
2023-02-16T21:28:24.476Z,84.20
2023-02-16T21:30:27.363Z,84.20
2023-02-16T21:32:30.114Z,84.30
2023-02-16T21:34:33.028Z,84.40
2023-02-16T21:36:37.723Z,84.40
2023-02-16T21:38:42.324Z,84.60
2023-02-16T21:41:02.436Z,84.30
2023-02-16T21:43:05.228Z,84.20
2023-02-16T21:45:14.508Z,84.20
2023-02-16T21:47:36.144Z,84.60
2023-02-16T21:49:39.974Z,85.20
2023-02-16T21:51:45.486Z,84.50
2023-02-16T21:53:49.101Z,84.50
2023-02-16T21:56:09.506Z,84.10
2023-02-16T21:58:12.538Z,84.40
2023-02-16T22:00:16.415Z,84.50
2023-02-16T22:02:19.204Z,84.30
2023-02-16T22:04:23.598Z,84.40
2023-02-16T22:06:28.493Z,84.30
2023-02-16T22:08:34.665Z,84.30
2023-02-16T22:10:37.441Z,84.50
2023-02-16T22:12:40.314Z,84.50
2023-02-16T22:14:43.038Z,84.30
2023-02-16T22:16:48.148Z,84.30
2023-02-16T22:18:51.234Z,84.30
2023-02-16T22:20:53.949Z,84.30
2023-02-16T22:22:56.789Z,84.50
2023-02-16T22:25:00.844Z,84.70
2023-02-16T22:27:03.658Z,84.90
2023-02-16T22:29:07.828Z,84.90
2023-02-16T22:31:10.590Z,84.80
2023-02-16T22:33:13.356Z,85.00
2023-02-16T22:35:16.248Z,85.40
2023-02-16T22:37:18.994Z,85.80
2023-02-16T22:39:22.078Z,86.00
2023-02-16T22:41:26.774Z,86.40
2023-02-16T22:43:29.540Z,86.60
2023-02-16T22:45:32.523Z,87.30
2023-02-16T22:47:35.248Z,86.90
2023-02-16T22:49:37.992Z,87.20
2023-02-16T22:51:40.833Z,87.50
2023-02-16T22:53:43.900Z,87.80
2023-02-16T22:55:46.675Z,87.80
2023-02-16T22:57:50.756Z,87.90
2023-02-16T22:59:53.457Z,88.20
2023-02-16T23:01:56.216Z,88.40
2023-02-16T23:04:02.046Z,88.60
2023-02-16T23:06:12.690Z,89.40
2023-02-16T23:08:15.706Z,89.20
2023-02-16T23:10:18.668Z,89.10
2023-02-16T23:12:21.397Z,89.30
2023-02-16T23:14:25.448Z,89.30
2023-02-16T23:16:29.037Z,89.60
2023-02-16T23:18:31.951Z,89.70
2023-02-16T23:20:35.157Z,90.00
2023-02-16T23:22:37.933Z,89.70
2023-02-16T23:24:41.664Z,89.70
2023-02-16T23:26:44.800Z,89.80
2023-02-16T23:28:51.619Z,89.80
2023-02-16T23:30:57.474Z,89.70
2023-02-16T23:33:00.419Z,89.50
2023-02-16T23:35:03.234Z,89.70
2023-02-16T23:37:05.970Z,89.80
2023-02-16T23:39:10.943Z,89.70
2023-02-16T23:41:15.730Z,90.00
2023-02-16T23:43:18.524Z,90.00
2023-02-16T23:45:21.255Z,90.00
2023-02-16T23:47:25.448Z,90.10
2023-02-16T23:49:28.357Z,90.20
2023-02-16T23:51:31.664Z,90.30
2023-02-16T23:53:34.955Z,90.30
2023-02-16T23:55:37.774Z,90.40
2023-02-16T23:57:40.519Z,90.50
2023-02-16T23:59:43.541Z,90.50
